sensor_id;sensor_type;location;lat;lon;timestamp;temperature;humidity
49777;DHT22;35673;51.482;7.436;2022-10-16T00:01:34;14.60;99.90
49777;DHT22;35673;51.482;7.436;2022-10-16T00:04:01;14.60;99.90
49777;DHT22;35673;51.482;7.436;2022-10-16T00:06:28;14.60;99.90
49777;DHT22;35673;51.482;7.436;2022-10-16T00:08:54;14.60;99.90
49777;DHT22;35673;51.482;7.436;2022-10-16T00:11:23;14.70;99.90
49777;DHT22;35673;51.482;7.436;2022-10-16T00:13:51;14.60;99.90
49777;DHT22;35673;51.482;7.436;2022-10-16T00:16:18;14.60;99.90
49777;DHT22;35673;51.482;7.436;2022-10-16T00:18:44;14.60;99.90
49777;DHT22;35673;51.482;7.436;2022-10-16T00:21:15;14.60;99.90
49777;DHT22;35673;51.482;7.436;2022-10-16T00:23:41;14.60;99.90
49777;DHT22;35673;51.482;7.436;2022-10-16T00:26:13;14.60;99.90
49777;DHT22;35673;51.482;7.436;2022-10-16T00:28:39;14.60;99.90
49777;DHT22;35673;51.482;7.436;2022-10-16T00:31:10;14.60;99.90
49777;DHT22;35673;51.482;7.436;2022-10-16T00:33:37;14.60;99.90
49777;DHT22;35673;51.482;7.436;2022-10-16T00:36:04;14.50;99.90
49777;DHT22;35673;51.482;7.436;2022-10-16T00:38:30;14.50;99.90
49777;DHT22;35673;51.482;7.436;2022-10-16T00:40:56;14.50;99.90
49777;DHT22;35673;51.482;7.436;2022-10-16T00:46:16;14.50;99.90
49777;DHT22;35673;51.482;7.436;2022-10-16T00:48:50;14.60;99.90
49777;DHT22;35673;51.482;7.436;2022-10-16T00:51:19;14.60;99.90
49777;DHT22;35673;51.482;7.436;2022-10-16T00:53:48;14.60;99.90
49777;DHT22;35673;51.482;7.436;2022-10-16T00:56:14;14.60;99.90
49777;DHT22;35673;51.482;7.436;2022-10-16T00:58:40;14.50;99.90
49777;DHT22;35673;51.482;7.436;2022-10-16T01:01:05;14.60;99.90
49777;DHT22;35673;51.482;7.436;2022-10-16T01:03:33;14.50;99.90
49777;DHT22;35673;51.482;7.436;2022-10-16T01:09:07;14.50;99.90
49777;DHT22;35673;51.482;7.436;2022-10-16T01:12:01;14.50;99.90
49777;DHT22;35673;51.482;7.436;2022-10-16T01:20:16;14.50;99.90
49777;DHT22;35673;51.482;7.436;2022-10-16T01:28:23;14.40;99.90
49777;DHT22;35673;51.482;7.436;2022-10-16T01:30:53;14.40;99.90
49777;DHT22;35673;51.482;7.436;2022-10-16T01:33:24;14.40;99.90
49777;DHT22;35673;51.482;7.436;2022-10-16T01:36:00;14.30;99.90
49777;DHT22;35673;51.482;7.436;2022-10-16T01:38:37;14.30;99.90
49777;DHT22;35673;51.482;7.436;2022-10-16T01:41:22;14.30;99.90
49777;DHT22;35673;51.482;7.436;2022-10-16T01:46:26;14.30;99.90
49777;DHT22;35673;51.482;7.436;2022-10-16T01:48:52;14.40;99.90
49777;DHT22;35673;51.482;7.436;2022-10-16T01:51:19;14.40;99.90
49777;DHT22;35673;51.482;7.436;2022-10-16T01:53:49;14.40;99.90
49777;DHT22;35673;51.482;7.436;2022-10-16T01:56:17;14.40;99.90
49777;DHT22;35673;51.482;7.436;2022-10-16T01:58:56;14.40;99.90
49777;DHT22;35673;51.482;7.436;2022-10-16T02:01:25;14.40;99.90
49777;DHT22;35673;51.482;7.436;2022-10-16T02:03:54;14.40;99.90
49777;DHT22;35673;51.482;7.436;2022-10-16T02:06:21;14.40;99.90
49777;DHT22;35673;51.482;7.436;2022-10-16T02:08:48;14.30;99.90
49777;DHT22;35673;51.482;7.436;2022-10-16T02:11:13;14.30;99.90
49777;DHT22;35673;51.482;7.436;2022-10-16T02:16:11;14.30;99.90
49777;DHT22;35673;51.482;7.436;2022-10-16T02:18:38;14.30;99.90
49777;DHT22;35673;51.482;7.436;2022-10-16T02:21:17;14.30;99.90
49777;DHT22;35673;51.482;7.436;2022-10-16T02:24:15;14.30;99.90
49777;DHT22;35673;51.482;7.436;2022-10-16T02:27:06;14.20;99.90
49777;DHT22;35673;51.482;7.436;2022-10-16T02:29:38;14.20;99.90
49777;DHT22;35673;51.482;7.436;2022-10-16T02:32:05;14.20;99.90
49777;DHT22;35673;51.482;7.436;2022-10-16T02:34:33;14.20;99.90
49777;DHT22;35673;51.482;7.436;2022-10-16T02:37:01;14.20;99.90
49777;DHT22;35673;51.482;7.436;2022-10-16T02:39:28;14.20;99.90
49777;DHT22;35673;51.482;7.436;2022-10-16T02:41:54;14.20;99.90
49777;DHT22;35673;51.482;7.436;2022-10-16T02:44:20;14.10;99.90
49777;DHT22;35673;51.482;7.436;2022-10-16T02:46:45;14.10;99.90
49777;DHT22;35673;51.482;7.436;2022-10-16T02:49:11;14.20;99.90
49777;DHT22;35673;51.482;7.436;2022-10-16T02:51:36;14.20;99.90
49777;DHT22;35673;51.482;7.436;2022-10-16T02:54:03;14.20;99.90
49777;DHT22;35673;51.482;7.436;2022-10-16T02:56:28;14.20;99.90
49777;DHT22;35673;51.482;7.436;2022-10-16T02:58:55;14.20;99.90
49777;DHT22;35673;51.482;7.436;2022-10-16T03:01:20;14.30;99.90
49777;DHT22;35673;51.482;7.436;2022-10-16T03:03:46;14.20;99.90
49777;DHT22;35673;51.482;7.436;2022-10-16T03:06:12;14.30;99.90
49777;DHT22;35673;51.482;7.436;2022-10-16T03:08:37;14.20;99.90
49777;DHT22;35673;51.482;7.436;2022-10-16T03:11:03;14.20;99.90
49777;DHT22;35673;51.482;7.436;2022-10-16T03:13:28;14.30;99.90
49777;DHT22;35673;51.482;7.436;2022-10-16T03:15:54;14.30;99.90
49777;DHT22;35673;51.482;7.436;2022-10-16T03:18:19;14.30;99.90
49777;DHT22;35673;51.482;7.436;2022-10-16T03:20:45;14.30;99.90
49777;DHT22;35673;51.482;7.436;2022-10-16T03:23:11;14.30;99.90
49777;DHT22;35673;51.482;7.436;2022-10-16T03:25:36;14.30;99.90
49777;DHT22;35673;51.482;7.436;2022-10-16T03:28:03;14.30;99.90
49777;DHT22;35673;51.482;7.436;2022-10-16T03:30:29;14.30;99.90
49777;DHT22;35673;51.482;7.436;2022-10-16T03:32:54;14.30;99.90
49777;DHT22;35673;51.482;7.436;2022-10-16T03:35:23;14.30;99.90
49777;DHT22;35673;51.482;7.436;2022-10-16T03:37:49;14.30;99.90
49777;DHT22;35673;51.482;7.436;2022-10-16T03:40:15;14.30;99.90
49777;DHT22;35673;51.482;7.436;2022-10-16T03:42:43;14.30;99.90
49777;DHT22;35673;51.482;7.436;2022-10-16T03:45:09;14.30;99.90
49777;DHT22;35673;51.482;7.436;2022-10-16T03:47:35;14.30;99.90
49777;DHT22;35673;51.482;7.436;2022-10-16T03:50:01;14.20;99.90
49777;DHT22;35673;51.482;7.436;2022-10-16T03:52:26;14.30;99.90
49777;DHT22;35673;51.482;7.436;2022-10-16T03:54:52;14.20;99.90
49777;DHT22;35673;51.482;7.436;2022-10-16T03:57:17;14.20;99.90
49777;DHT22;35673;51.482;7.436;2022-10-16T03:59:43;14.20;99.90
49777;DHT22;35673;51.482;7.436;2022-10-16T04:02:09;14.20;99.90
49777;DHT22;35673;51.482;7.436;2022-10-16T04:04:35;14.20;99.90
49777;DHT22;35673;51.482;7.436;2022-10-16T04:07:00;14.20;99.90
49777;DHT22;35673;51.482;7.436;2022-10-16T04:09:26;14.20;99.90
49777;DHT22;35673;51.482;7.436;2022-10-16T04:11:52;14.10;99.90
49777;DHT22;35673;51.482;7.436;2022-10-16T04:14:17;14.10;99.90
49777;DHT22;35673;51.482;7.436;2022-10-16T04:16:43;14.10;99.90
49777;DHT22;35673;51.482;7.436;2022-10-16T04:19:09;14.00;99.90
49777;DHT22;35673;51.482;7.436;2022-10-16T04:21:35;14.00;99.90
49777;DHT22;35673;51.482;7.436;2022-10-16T04:24:00;14.00;99.90
49777;DHT22;35673;51.482;7.436;2022-10-16T04:26:26;14.00;99.90
49777;DHT22;35673;51.482;7.436;2022-10-16T04:28:51;14.00;99.90
49777;DHT22;35673;51.482;7.436;2022-10-16T04:31:17;14.00;99.90
49777;DHT22;35673;51.482;7.436;2022-10-16T04:33:43;14.00;99.90
49777;DHT22;35673;51.482;7.436;2022-10-16T04:36:08;13.90;99.90
49777;DHT22;35673;51.482;7.436;2022-10-16T04:38:34;13.90;99.90
49777;DHT22;35673;51.482;7.436;2022-10-16T04:41:00;13.90;99.90
49777;DHT22;35673;51.482;7.436;2022-10-16T04:43:26;13.90;99.90
49777;DHT22;35673;51.482;7.436;2022-10-16T04:45:51;13.90;99.90
49777;DHT22;35673;51.482;7.436;2022-10-16T04:48:17;13.90;99.90
49777;DHT22;35673;51.482;7.436;2022-10-16T04:50:43;13.90;99.90
49777;DHT22;35673;51.482;7.436;2022-10-16T04:53:09;13.90;99.90
49777;DHT22;35673;51.482;7.436;2022-10-16T04:55:34;13.90;99.90
49777;DHT22;35673;51.482;7.436;2022-10-16T04:58:00;13.90;99.90
49777;DHT22;35673;51.482;7.436;2022-10-16T05:00:26;13.90;99.90
49777;DHT22;35673;51.482;7.436;2022-10-16T05:02:52;13.90;99.90
49777;DHT22;35673;51.482;7.436;2022-10-16T05:05:18;13.90;99.90
49777;DHT22;35673;51.482;7.436;2022-10-16T05:07:47;13.90;99.90
49777;DHT22;35673;51.482;7.436;2022-10-16T05:10:13;13.90;99.90
49777;DHT22;35673;51.482;7.436;2022-10-16T05:12:38;13.90;99.90
49777;DHT22;35673;51.482;7.436;2022-10-16T05:15:04;13.90;99.90
49777;DHT22;35673;51.482;7.436;2022-10-16T05:17:30;13.90;99.90
49777;DHT22;35673;51.482;7.436;2022-10-16T05:23:18;13.90;99.90
49777;DHT22;35673;51.482;7.436;2022-10-16T05:25:51;13.90;99.90
49777;DHT22;35673;51.482;7.436;2022-10-16T05:28:16;13.90;99.90
49777;DHT22;35673;51.482;7.436;2022-10-16T05:30:42;13.90;99.90
49777;DHT22;35673;51.482;7.436;2022-10-16T05:33:07;13.90;99.90
49777;DHT22;35673;51.482;7.436;2022-10-16T05:35:33;14.00;99.90
49777;DHT22;35673;51.482;7.436;2022-10-16T05:37:59;13.90;99.90
49777;DHT22;35673;51.482;7.436;2022-10-16T05:40:25;13.90;99.90
49777;DHT22;35673;51.482;7.436;2022-10-16T05:42:54;14.00;99.90
49777;DHT22;35673;51.482;7.436;2022-10-16T05:45:20;13.90;99.90
49777;DHT22;35673;51.482;7.436;2022-10-16T05:47:45;13.90;99.90
49777;DHT22;35673;51.482;7.436;2022-10-16T05:50:11;14.00;99.90
49777;DHT22;35673;51.482;7.436;2022-10-16T05:52:36;13.90;99.90
49777;DHT22;35673;51.482;7.436;2022-10-16T05:55:03;14.00;99.90
49777;DHT22;35673;51.482;7.436;2022-10-16T05:57:29;13.90;99.90
49777;DHT22;35673;51.482;7.436;2022-10-16T05:59:55;13.90;99.90
49777;DHT22;35673;51.482;7.436;2022-10-16T06:02:21;14.00;99.90
49777;DHT22;35673;51.482;7.436;2022-10-16T06:04:46;14.00;99.90
49777;DHT22;35673;51.482;7.436;2022-10-16T06:07:12;14.00;99.90
49777;DHT22;35673;51.482;7.436;2022-10-16T06:09:37;14.00;99.90
49777;DHT22;35673;51.482;7.436;2022-10-16T06:12:03;14.00;99.90
49777;DHT22;35673;51.482;7.436;2022-10-16T06:14:29;14.00;99.90
49777;DHT22;35673;51.482;7.436;2022-10-16T06:16:54;14.00;99.90
49777;DHT22;35673;51.482;7.436;2022-10-16T06:19:20;14.00;99.90
49777;DHT22;35673;51.482;7.436;2022-10-16T06:21:45;14.00;99.90
49777;DHT22;35673;51.482;7.436;2022-10-16T06:24:11;14.00;99.90
49777;DHT22;35673;51.482;7.436;2022-10-16T06:26:37;14.00;99.90
49777;DHT22;35673;51.482;7.436;2022-10-16T06:29:03;14.00;99.90
49777;DHT22;35673;51.482;7.436;2022-10-16T06:31:29;14.00;99.90
49777;DHT22;35673;51.482;7.436;2022-10-16T06:33:57;14.10;99.90
49777;DHT22;35673;51.482;7.436;2022-10-16T06:36:24;14.00;99.90
49777;DHT22;35673;51.482;7.436;2022-10-16T06:38:50;14.00;99.90
49777;DHT22;35673;51.482;7.436;2022-10-16T06:41:17;14.10;99.90
49777;DHT22;35673;51.482;7.436;2022-10-16T06:43:43;14.10;99.90
49777;DHT22;35673;51.482;7.436;2022-10-16T06:46:14;14.10;99.90
49777;DHT22;35673;51.482;7.436;2022-10-16T06:48:40;14.20;99.90
49777;DHT22;35673;51.482;7.436;2022-10-16T06:51:06;14.20;99.90
49777;DHT22;35673;51.482;7.436;2022-10-16T06:53:36;14.30;99.90
49777;DHT22;35673;51.482;7.436;2022-10-16T06:56:08;14.30;99.90
49777;DHT22;35673;51.482;7.436;2022-10-16T06:58:34;14.30;99.90
49777;DHT22;35673;51.482;7.436;2022-10-16T07:01:00;14.30;99.90
49777;DHT22;35673;51.482;7.436;2022-10-16T07:03:26;14.30;99.90
49777;DHT22;35673;51.482;7.436;2022-10-16T07:05:54;14.40;99.90
49777;DHT22;35673;51.482;7.436;2022-10-16T07:08:19;14.40;99.90
49777;DHT22;35673;51.482;7.436;2022-10-16T07:10:45;14.40;99.90
49777;DHT22;35673;51.482;7.436;2022-10-16T07:13:10;14.50;99.90
49777;DHT22;35673;51.482;7.436;2022-10-16T07:15:38;14.60;99.90
49777;DHT22;35673;51.482;7.436;2022-10-16T07:18:04;14.60;99.90
49777;DHT22;35673;51.482;7.436;2022-10-16T07:20:29;14.70;99.90
49777;DHT22;35673;51.482;7.436;2022-10-16T07:22:55;14.70;99.90
49777;DHT22;35673;51.482;7.436;2022-10-16T07:25:20;14.70;99.90
49777;DHT22;35673;51.482;7.436;2022-10-16T07:27:46;14.80;99.90
49777;DHT22;35673;51.482;7.436;2022-10-16T07:30:12;14.80;99.90
49777;DHT22;35673;51.482;7.436;2022-10-16T07:32:37;14.80;99.90
49777;DHT22;35673;51.482;7.436;2022-10-16T07:35:03;14.90;99.90
49777;DHT22;35673;51.482;7.436;2022-10-16T07:37:29;14.90;99.90
49777;DHT22;35673;51.482;7.436;2022-10-16T07:39:54;14.80;99.90
49777;DHT22;35673;51.482;7.436;2022-10-16T07:42:20;14.80;99.90
49777;DHT22;35673;51.482;7.436;2022-10-16T07:44:46;14.80;99.90
49777;DHT22;35673;51.482;7.436;2022-10-16T07:47:11;14.70;99.90
49777;DHT22;35673;51.482;7.436;2022-10-16T07:49:37;14.80;99.90
49777;DHT22;35673;51.482;7.436;2022-10-16T07:52:02;14.80;99.90
49777;DHT22;35673;51.482;7.436;2022-10-16T07:54:28;14.80;99.90
49777;DHT22;35673;51.482;7.436;2022-10-16T07:56:54;15.00;99.90
49777;DHT22;35673;51.482;7.436;2022-10-16T07:59:19;15.30;99.90
49777;DHT22;35673;51.482;7.436;2022-10-16T08:01:45;15.70;99.90
49777;DHT22;35673;51.482;7.436;2022-10-16T08:04:11;15.80;99.90
49777;DHT22;35673;51.482;7.436;2022-10-16T08:06:38;15.90;99.90
49777;DHT22;35673;51.482;7.436;2022-10-16T08:09:06;16.10;99.90
49777;DHT22;35673;51.482;7.436;2022-10-16T08:11:32;16.30;99.90
49777;DHT22;35673;51.482;7.436;2022-10-16T08:13:57;16.40;99.90
49777;DHT22;35673;51.482;7.436;2022-10-16T08:16:23;16.60;99.90
49777;DHT22;35673;51.482;7.436;2022-10-16T08:18:49;16.70;99.90
49777;DHT22;35673;51.482;7.436;2022-10-16T08:21:19;16.80;99.90
49777;DHT22;35673;51.482;7.436;2022-10-16T08:23:44;16.90;99.90
49777;DHT22;35673;51.482;7.436;2022-10-16T08:26:11;16.90;99.90
49777;DHT22;35673;51.482;7.436;2022-10-16T08:28:37;16.90;99.90
49777;DHT22;35673;51.482;7.436;2022-10-16T08:31:14;16.80;99.90
49777;DHT22;35673;51.482;7.436;2022-10-16T08:33:42;16.80;99.90
49777;DHT22;35673;51.482;7.436;2022-10-16T08:36:11;16.80;99.90
49777;DHT22;35673;51.482;7.436;2022-10-16T08:38:37;16.90;99.90
49777;DHT22;35673;51.482;7.436;2022-10-16T08:43:55;17.00;99.90
49777;DHT22;35673;51.482;7.436;2022-10-16T08:48:59;17.00;99.90
49777;DHT22;35673;51.482;7.436;2022-10-16T08:51:35;17.00;99.90
49777;DHT22;35673;51.482;7.436;2022-10-16T08:56:49;17.10;99.90
49777;DHT22;35673;51.482;7.436;2022-10-16T08:59:16;17.10;99.90
49777;DHT22;35673;51.482;7.436;2022-10-16T09:01:44;17.20;99.90
49777;DHT22;35673;51.482;7.436;2022-10-16T09:04:48;17.30;99.90
49777;DHT22;35673;51.482;7.436;2022-10-16T09:07:15;17.30;99.90
49777;DHT22;35673;51.482;7.436;2022-10-16T09:12:45;17.30;99.90
49777;DHT22;35673;51.482;7.436;2022-10-16T09:18:26;17.40;94.30
49777;DHT22;35673;51.482;7.436;2022-10-16T09:21:16;17.30;94.20
49777;DHT22;35673;51.482;7.436;2022-10-16T09:23:43;17.40;93.80
49777;DHT22;35673;51.482;7.436;2022-10-16T09:26:12;17.40;93.60
49777;DHT22;35673;51.482;7.436;2022-10-16T09:28:39;17.40;92.90
49777;DHT22;35673;51.482;7.436;2022-10-16T09:31:04;17.40;94.30
49777;DHT22;35673;51.482;7.436;2022-10-16T09:33:35;17.40;93.60
49777;DHT22;35673;51.482;7.436;2022-10-16T09:36:03;17.50;93.80
49777;DHT22;35673;51.482;7.436;2022-10-16T09:38:32;17.60;93.60
49777;DHT22;35673;51.482;7.436;2022-10-16T09:41:00;17.60;93.70
49777;DHT22;35673;51.482;7.436;2022-10-16T09:49:01;17.40;91.40
49777;DHT22;35673;51.482;7.436;2022-10-16T09:51:35;17.40;91.50
49777;DHT22;35673;51.482;7.436;2022-10-16T09:56:38;17.60;91.30
49777;DHT22;35673;51.482;7.436;2022-10-16T09:59:23;17.70;92.60
49777;DHT22;35673;51.482;7.436;2022-10-16T10:01:51;17.90;91.60
49777;DHT22;35673;51.482;7.436;2022-10-16T10:04:18;18.00;90.90
49777;DHT22;35673;51.482;7.436;2022-10-16T10:06:53;18.10;90.90
49777;DHT22;35673;51.482;7.436;2022-10-16T10:14:22;18.50;90.40
49777;DHT22;35673;51.482;7.436;2022-10-16T10:16:48;18.30;88.20
49777;DHT22;35673;51.482;7.436;2022-10-16T10:19:16;18.10;87.70
49777;DHT22;35673;51.482;7.436;2022-10-16T10:21:43;18.10;88.00
49777;DHT22;35673;51.482;7.436;2022-10-16T10:24:13;18.20;87.30
49777;DHT22;35673;51.482;7.436;2022-10-16T10:29:21;18.10;86.70
49777;DHT22;35673;51.482;7.436;2022-10-16T10:34:38;18.70;84.50
49777;DHT22;35673;51.482;7.436;2022-10-16T10:37:21;18.50;84.90
49777;DHT22;35673;51.482;7.436;2022-10-16T10:40:03;18.40;85.10
49777;DHT22;35673;51.482;7.436;2022-10-16T10:42:42;18.40;85.40
49777;DHT22;35673;51.482;7.436;2022-10-16T10:45:27;18.40;85.80
49777;DHT22;35673;51.482;7.436;2022-10-16T10:50:45;18.60;86.30
49777;DHT22;35673;51.482;7.436;2022-10-16T10:53:25;18.80;85.90
49777;DHT22;35673;51.482;7.436;2022-10-16T10:59:09;18.70;85.10
49777;DHT22;35673;51.482;7.436;2022-10-16T11:01:53;18.80;83.40
49777;DHT22;35673;51.482;7.436;2022-10-16T11:04:25;18.70;82.50
49777;DHT22;35673;51.482;7.436;2022-10-16T11:07:02;18.70;83.90
49777;DHT22;35673;51.482;7.436;2022-10-16T11:09:47;18.90;84.00
49777;DHT22;35673;51.482;7.436;2022-10-16T11:12:27;18.90;83.10
49777;DHT22;35673;51.482;7.436;2022-10-16T11:14:58;19.00;82.20
49777;DHT22;35673;51.482;7.436;2022-10-16T11:17:33;19.10;81.70
49777;DHT22;35673;51.482;7.436;2022-10-16T11:20:14;19.20;81.00
49777;DHT22;35673;51.482;7.436;2022-10-16T11:23:02;19.40;79.00
49777;DHT22;35673;51.482;7.436;2022-10-16T11:25:31;19.80;77.80
49777;DHT22;35673;51.482;7.436;2022-10-16T11:28:39;19.90;76.30
49777;DHT22;35673;51.482;7.436;2022-10-16T11:30:57;19.60;76.60
49777;DHT22;35673;51.482;7.436;2022-10-16T11:33:29;19.50;77.30
49777;DHT22;35673;51.482;7.436;2022-10-16T11:36:12;19.40;77.50
49777;DHT22;35673;51.482;7.436;2022-10-16T11:38:48;19.30;76.50
49777;DHT22;35673;51.482;7.436;2022-10-16T11:44:04;19.30;77.10
49777;DHT22;35673;51.482;7.436;2022-10-16T11:46:34;19.40;76.50
49777;DHT22;35673;51.482;7.436;2022-10-16T11:49:09;19.40;76.60
49777;DHT22;35673;51.482;7.436;2022-10-16T11:51:40;19.60;76.00
49777;DHT22;35673;51.482;7.436;2022-10-16T11:56:37;19.70;75.30
49777;DHT22;35673;51.482;7.436;2022-10-16T11:59:44;19.70;75.30
49777;DHT22;35673;51.482;7.436;2022-10-16T12:02:25;19.70;74.30
49777;DHT22;35673;51.482;7.436;2022-10-16T12:07:45;19.80;72.70
49777;DHT22;35673;51.482;7.436;2022-10-16T12:10:22;19.90;73.30
49777;DHT22;35673;51.482;7.436;2022-10-16T12:12:48;20.10;72.30
49777;DHT22;35673;51.482;7.436;2022-10-16T12:17:45;20.50;71.00
49777;DHT22;35673;51.482;7.436;2022-10-16T12:22:41;21.10;70.60
49777;DHT22;35673;51.482;7.436;2022-10-16T12:25:36;22.10;69.00
49777;DHT22;35673;51.482;7.436;2022-10-16T12:28:19;23.40;66.90
49777;DHT22;35673;51.482;7.436;2022-10-16T12:31:00;24.30;63.90
49777;DHT22;35673;51.482;7.436;2022-10-16T12:33:32;24.40;62.00
49777;DHT22;35673;51.482;7.436;2022-10-16T12:36:00;24.20;64.10
49777;DHT22;35673;51.482;7.436;2022-10-16T12:38:45;23.70;64.10
49777;DHT22;35673;51.482;7.436;2022-10-16T12:41:12;23.10;64.20
49777;DHT22;35673;51.482;7.436;2022-10-16T12:43:40;22.70;64.60
49777;DHT22;35673;51.482;7.436;2022-10-16T12:48:36;22.90;64.40
49777;DHT22;35673;51.482;7.436;2022-10-16T12:51:33;22.70;64.80
49777;DHT22;35673;51.482;7.436;2022-10-16T12:54:03;23.10;64.10
49777;DHT22;35673;51.482;7.436;2022-10-16T13:02:29;22.80;64.40
49777;DHT22;35673;51.482;7.436;2022-10-16T13:05:13;22.90;63.60
49777;DHT22;35673;51.482;7.436;2022-10-16T13:07:51;22.40;63.90
49777;DHT22;35673;51.482;7.436;2022-10-16T13:10:26;21.90;65.50
49777;DHT22;35673;51.482;7.436;2022-10-16T13:13:00;21.70;66.00
49777;DHT22;35673;51.482;7.436;2022-10-16T13:18:14;21.40;66.60
49777;DHT22;35673;51.482;7.436;2022-10-16T13:20:56;21.40;66.30
49777;DHT22;35673;51.482;7.436;2022-10-16T13:26:28;22.50;65.60
49777;DHT22;35673;51.482;7.436;2022-10-16T13:29:00;23.30;64.10
49777;DHT22;35673;51.482;7.436;2022-10-16T13:31:26;23.60;62.50
49777;DHT22;35673;51.482;7.436;2022-10-16T13:33:55;24.00;63.00
49777;DHT22;35673;51.482;7.436;2022-10-16T13:36:27;24.40;61.60
49777;DHT22;35673;51.482;7.436;2022-10-16T13:39:19;24.90;60.00
49777;DHT22;35673;51.482;7.436;2022-10-16T13:41:46;24.80;58.50
49777;DHT22;35673;51.482;7.436;2022-10-16T13:44:18;24.00;61.10
49777;DHT22;35673;51.482;7.436;2022-10-16T13:46:45;23.70;61.40
49777;DHT22;35673;51.482;7.436;2022-10-16T13:49:14;23.70;61.60
49777;DHT22;35673;51.482;7.436;2022-10-16T13:51:40;23.50;61.10
49777;DHT22;35673;51.482;7.436;2022-10-16T13:54:09;23.40;61.60
49777;DHT22;35673;51.482;7.436;2022-10-16T13:56:38;23.60;61.20
49777;DHT22;35673;51.482;7.436;2022-10-16T13:59:07;23.50;62.00
49777;DHT22;35673;51.482;7.436;2022-10-16T14:01:47;23.70;61.40
49777;DHT22;35673;51.482;7.436;2022-10-16T14:04:13;24.20;60.60
49777;DHT22;35673;51.482;7.436;2022-10-16T14:06:45;24.40;60.30
49777;DHT22;35673;51.482;7.436;2022-10-16T14:09:26;24.20;59.50
49777;DHT22;35673;51.482;7.436;2022-10-16T14:14:24;23.40;61.30
49777;DHT22;35673;51.482;7.436;2022-10-16T14:16:52;24.00;60.50
49777;DHT22;35673;51.482;7.436;2022-10-16T14:19:26;24.80;58.90
49777;DHT22;35673;51.482;7.436;2022-10-16T14:21:53;24.50;58.50
49777;DHT22;35673;51.482;7.436;2022-10-16T14:24:33;23.60;60.30
49777;DHT22;35673;51.482;7.436;2022-10-16T14:27:00;23.10;61.50
49777;DHT22;35673;51.482;7.436;2022-10-16T14:29:27;25.20;60.50
49777;DHT22;35673;51.482;7.436;2022-10-16T14:32:05;28.40;55.70
49777;DHT22;35673;51.482;7.436;2022-10-16T14:34:32;28.60;53.40
49777;DHT22;35673;51.482;7.436;2022-10-16T14:37:01;26.80;55.40
49777;DHT22;35673;51.482;7.436;2022-10-16T14:39:32;25.30;57.10
49777;DHT22;35673;51.482;7.436;2022-10-16T14:41:58;24.20;59.10
49777;DHT22;35673;51.482;7.436;2022-10-16T14:44:29;23.40;60.40
49777;DHT22;35673;51.482;7.436;2022-10-16T14:46:56;22.70;61.80
49777;DHT22;35673;51.482;7.436;2022-10-16T14:49:23;22.20;63.00
49777;DHT22;35673;51.482;7.436;2022-10-16T14:51:49;21.80;64.40
49777;DHT22;35673;51.482;7.436;2022-10-16T14:54:17;21.60;65.00
49777;DHT22;35673;51.482;7.436;2022-10-16T14:56:57;21.70;65.10
49777;DHT22;35673;51.482;7.436;2022-10-16T14:59:35;22.70;63.80
49777;DHT22;35673;51.482;7.436;2022-10-16T15:02:23;22.90;63.30
49777;DHT22;35673;51.482;7.436;2022-10-16T15:04:50;22.70;63.60
49777;DHT22;35673;51.482;7.436;2022-10-16T15:07:16;23.10;64.00
49777;DHT22;35673;51.482;7.436;2022-10-16T15:09:42;24.50;62.30
49777;DHT22;35673;51.482;7.436;2022-10-16T15:12:07;24.10;62.20
49777;DHT22;35673;51.482;7.436;2022-10-16T15:14:33;23.60;63.10
49777;DHT22;35673;51.482;7.436;2022-10-16T15:16:58;23.20;64.00
49777;DHT22;35673;51.482;7.436;2022-10-16T15:19:24;22.70;64.40
49777;DHT22;35673;51.482;7.436;2022-10-16T15:21:50;22.20;65.30
49777;DHT22;35673;51.482;7.436;2022-10-16T15:24:16;21.90;66.00
49777;DHT22;35673;51.482;7.436;2022-10-16T15:26:41;21.60;67.10
49777;DHT22;35673;51.482;7.436;2022-10-16T15:29:07;21.40;67.60
49777;DHT22;35673;51.482;7.436;2022-10-16T15:31:33;21.30;67.80
49777;DHT22;35673;51.482;7.436;2022-10-16T15:33:59;21.10;68.50
49777;DHT22;35673;51.482;7.436;2022-10-16T15:36:31;21.00;69.00
49777;DHT22;35673;51.482;7.436;2022-10-16T15:39:08;20.80;69.50
49777;DHT22;35673;51.482;7.436;2022-10-16T15:41:35;20.70;70.10
49777;DHT22;35673;51.482;7.436;2022-10-16T15:44:01;20.60;70.60
49777;DHT22;35673;51.482;7.436;2022-10-16T15:46:27;20.50;71.10
49777;DHT22;35673;51.482;7.436;2022-10-16T15:48:57;20.50;71.70
49777;DHT22;35673;51.482;7.436;2022-10-16T15:51:23;20.40;73.30
49777;DHT22;35673;51.482;7.436;2022-10-16T15:53:49;20.30;73.20
49777;DHT22;35673;51.482;7.436;2022-10-16T15:56:16;20.20;73.90
49777;DHT22;35673;51.482;7.436;2022-10-16T15:58:43;20.20;74.80
49777;DHT22;35673;51.482;7.436;2022-10-16T16:01:09;20.10;75.30
49777;DHT22;35673;51.482;7.436;2022-10-16T16:03:38;20.00;75.60
49777;DHT22;35673;51.482;7.436;2022-10-16T16:06:07;19.90;76.40
49777;DHT22;35673;51.482;7.436;2022-10-16T16:08:33;19.90;77.20
49777;DHT22;35673;51.482;7.436;2022-10-16T16:11:01;19.70;78.30
49777;DHT22;35673;51.482;7.436;2022-10-16T16:13:27;19.70;78.00
49777;DHT22;35673;51.482;7.436;2022-10-16T16:15:52;19.60;78.10
49777;DHT22;35673;51.482;7.436;2022-10-16T16:18:18;19.60;78.60
49777;DHT22;35673;51.482;7.436;2022-10-16T16:20:44;19.60;79.30
49777;DHT22;35673;51.482;7.436;2022-10-16T16:23:09;19.60;79.60
49777;DHT22;35673;51.482;7.436;2022-10-16T16:25:35;19.60;80.00
49777;DHT22;35673;51.482;7.436;2022-10-16T16:28:01;19.60;80.40
49777;DHT22;35673;51.482;7.436;2022-10-16T16:30:27;19.60;80.70
49777;DHT22;35673;51.482;7.436;2022-10-16T16:32:52;19.60;80.90
49777;DHT22;35673;51.482;7.436;2022-10-16T16:35:18;19.50;81.30
49777;DHT22;35673;51.482;7.436;2022-10-16T16:37:43;19.40;81.50
49777;DHT22;35673;51.482;7.436;2022-10-16T16:40:09;19.40;81.70
49777;DHT22;35673;51.482;7.436;2022-10-16T16:42:34;19.40;81.80
49777;DHT22;35673;51.482;7.436;2022-10-16T16:45:00;19.40;82.00
49777;DHT22;35673;51.482;7.436;2022-10-16T16:47:25;19.40;82.10
49777;DHT22;35673;51.482;7.436;2022-10-16T16:49:51;19.30;82.60
49777;DHT22;35673;51.482;7.436;2022-10-16T16:52:17;19.30;83.00
49777;DHT22;35673;51.482;7.436;2022-10-16T16:54:43;19.30;83.10
49777;DHT22;35673;51.482;7.436;2022-10-16T16:57:10;19.20;83.10
49777;DHT22;35673;51.482;7.436;2022-10-16T16:59:36;19.20;83.80
49777;DHT22;35673;51.482;7.436;2022-10-16T17:02:02;19.10;84.30
49777;DHT22;35673;51.482;7.436;2022-10-16T17:04:27;19.00;84.60
49777;DHT22;35673;51.482;7.436;2022-10-16T17:06:54;19.00;85.50
49777;DHT22;35673;51.482;7.436;2022-10-16T17:09:20;19.00;86.30
49777;DHT22;35673;51.482;7.436;2022-10-16T17:11:46;18.90;87.50
49777;DHT22;35673;51.482;7.436;2022-10-16T17:14:14;18.80;88.80
49777;DHT22;35673;51.482;7.436;2022-10-16T17:16:40;18.80;90.60